OSDI/DAM METAR and TAF weather

Enter ICAO airport designator
Station Type Date Time Source
OSDI METAR 2019/06/18 15:00 UTC NOAA

OSDI 181500Z 24023KT 9999 FEW030 30/10 Q1012


Station Type Date Time Source
OSDI Decoded METAR 2019/06/18 15:00 UTC NOAA

Damascus Int. Airport, Syria (OSDI) 33-25N 036-31E 609M
Jun 18, 2019 - 11:00 AM EDT / 2019.06.18 1500 UTC
Wind: from the WSW (240 degrees) at 26 MPH (23 KT):0
Visibility: greater than 7 mile(s):0
Sky conditions: mostly clear
Temperature: 86 F (30 C)
Dew Point: 50 F (10 C)
Relative Humidity: 28%
Pressure (altimeter): 29.88 in. Hg (1012 hPa)
ob: OSDI 181500Z 24023KT 9999 FEW030 30/10 Q1012
cycle: 15

Station Type Date Time Source
OSDI TAF 2019/06/18 12:06 UTC NOAA

TAF TAF OSDI 1812/1918 26020KT 9999 SCT030
TEMPO 1900/1908 VRB03KT CAVOK

Example: see airport list